• Join FlightAware (Why Join?)
  • Login
  • US Flag 
08:17PM EDT


 

Airport Tracker/Info


-or-


 

Live Flight TrackerFlight Track Log ✈ TAM3245 ✈ 30-Jun-2013 ✈ SBUL / UDI - SBSP / CGH

Flight Track Log - Related Links

Times and Time Zones

All times are in EDT time to prevent confusion due to time zone crossing. See the TAM3245 flight status page for this flight to view local times or setup timezone preferences in your user account.

Time Position Orientation Groundspeed Altitude Reporting Facility
EDT Latitude Longitude Course Direction KTS MPH feet Rate Location/Type
08:18PM -20.6478 -47.6536 163° South  Level Estimated
08:19PM -20.7581 -47.6174 163° South  Level Estimated
08:20PM -20.8683 -47.5812 163° South  Level Estimated
08:21PM -20.9785 -47.5449 163° South  Level Estimated
08:22PM -21.0887 -47.5086 163° South  Level Estimated
08:23PM -21.1990 -47.4722 163° South  Level Estimated
08:24PM -21.3092 -47.4357 163° South  Level Estimated
08:25PM -21.4194 -47.3992 163° South  Level Estimated
08:26PM -21.5296 -47.3627 163° South  Level Estimated
08:27PM -21.6397 -47.3261 163° South  Level Estimated
08:28PM -21.7499 -47.2894 163° South  Level Estimated
08:29PM -21.8601 -47.2527 163° South  Level Estimated
08:30PM -21.9703 -47.2159 163° South  Level Estimated
08:31PM -22.0804 -47.1791 163° South  Level Estimated
08:32PM -22.1905 -47.1422 163° South  Level Estimated
08:33PM -22.3007 -47.1052 163° South  Level Estimated
08:34PM -22.4108 -47.0682 163° South  Level Estimated
08:35PM -22.5209 -47.0311 163° South  Level Estimated
08:36PM -22.6311 -46.9940 163° South  Level Estimated
08:37PM -22.7411 -46.9568 163° South  Level Estimated
08:38PM -22.8512 -46.9196 163° South  Level Estimated
08:39PM -22.9613 -46.8823 163° South  Level Estimated
08:40PM -23.0714 -46.8449 163° South  Level Estimated
08:41PM -23.1815 -46.8074 163° South  Level Estimated
08:42PM -23.2915 -46.7700 163° South  Level Estimated
08:43PM -23.4016 -46.7324 163° South  Level Estimated
08:44PM -23.5116 -46.6948 163° South  Level Estimated
08:45PM -23.6217 -46.6571 163° South  Level Estimated
08:46PM -23.6267 -46.6554 163° South  Level Estimated
08:47PM -23.6267 -46.6554 114° Southeast  Level Estimated
08:48PM -23.6267 -46.6554 114° Southeast  Level Estimated
08:49PM -23.6267 -46.6554 114° Southeast  Level Estimated
08:50PM -23.6267 -46.6554 114° Southeast  Level Estimated
08:51PM -23.6267 -46.6554 114° Southeast  Level Estimated
08:52PM -23.6267 -46.6554 114° Southeast  Level Estimated
08:53PM -23.6267 -46.6554 114° Southeast  Level Estimated
08:54PM -23.6267 -46.6554 114° Southeast  Level Estimated
08:55PM -23.6267 -46.6554 114° Southeast  Level Estimated
08:56PM -23.6267 -46.6554 114° Southeast  Level Estimated
08:57PM -23.6267 -46.6554 114° Southeast  Level Estimated
08:58PM -23.6267 -46.6554 114° Southeast  Level Estimated
08:59PM -23.6267 -46.6554 114° Southeast  Level Estimated
09:00PM -23.6267 -46.6554 114° Southeast  Level Estimated
09:01PM -23.6267 -46.6554 114° Southeast  Level Estimated